KEMP/EMP METAR and TAF weather

Enter ICAO airport designator
Station Type Date Time Source
KEMP METAR 2018/12/10 23:53 UTC NOAA

KEMP 102353Z AUTO 23006KT 10SM CLR M01/M07 A3025 RMK AO2 SLP262 T10061067 10067 21006 58004


Station Type Date Time Source
KEMP Decoded METAR 2018/12/10 23:53 UTC NOAA

EMPORIA MUNICIPAL AIRPORT, KS, United States (KEMP) 38-20N 96-12W 367M
Dec 10, 2018 - 06:53 PM EST / 2018.12.10 2353 UTC
Wind: from the SW (230 degrees) at 7 MPH (6 KT):0
Visibility: 10 mile(s):0
Sky conditions: clear
Temperature: 30.9 F (-0.6 C)
Windchill: 24 F (-4 C):1
Dew Point: 19.9 F (-6.7 C)
Relative Humidity: 63%
Pressure (altimeter): 30.25 in. Hg (1024 hPa)
Pressure tendency: 0.01 inches (0.4 hPa) lower than three hours ago
ob: KEMP 102353Z AUTO 23006KT 10SM CLR M01/M07 A3025 RMK AO2 SLP262 T10061067 10067 21006 58004
cycle: 0

Station Type Date Time Source
KEMP TAF UTC NOAA

Error!


Example: see airport list